createdAt,value
2019-01-25T00:09:35.096Z,86.08
2019-01-25T00:15:12.106Z,86.46
2019-01-25T00:17:40.471Z,86.59
2019-01-25T00:20:48.734Z,86.27
2019-01-25T00:32:55.279Z,87.00
2019-01-25T00:38:18.207Z,87.48
2019-01-25T00:43:41.709Z,86.93
2019-01-25T00:46:10.168Z,86.75
2019-01-25T00:51:46.317Z,86.57
2019-01-25T00:57:22.797Z,86.56
2019-01-25T00:59:51.015Z,86.27
2019-01-25T01:02:19.152Z,86.07
2019-01-25T01:04:46.927Z,87.21
2019-01-25T01:10:50.606Z,85.63
2019-01-25T01:13:58.767Z,86.02
2019-01-25T01:16:26.875Z,85.93
2019-01-25T01:18:54.635Z,85.90
2019-01-25T01:21:22.832Z,85.87
2019-01-25T01:23:50.886Z,86.28
2019-01-25T01:26:18.997Z,88.33
2019-01-25T01:28:47.517Z,88.09
2019-01-25T01:31:55.982Z,89.09
2019-01-25T01:41:07.438Z,91.07
2019-01-25T01:43:35.228Z,90.78
2019-01-25T01:49:11.702Z,86.25
2019-01-25T01:54:48.570Z,87.78
2019-01-25T01:57:57.002Z,86.51
2019-01-25T02:00:44.511Z,86.32
2019-01-25T02:03:12.272Z,88.70
2019-01-25T02:05:40.673Z,89.35
2019-01-25T02:08:09.258Z,87.93
2019-01-25T02:10:37.738Z,86.55
2019-01-25T02:13:05.608Z,86.69
2019-01-25T02:21:37.143Z,87.57
2019-01-25T02:24:45.276Z,87.81
2019-01-25T02:27:53.697Z,87.04
2019-01-25T02:33:58.010Z,86.90
2019-01-25T02:37:06.450Z,88.77
2019-01-25T02:39:34.611Z,88.40
2019-01-25T02:42:02.719Z,87.12
2019-01-25T02:44:31.220Z,88.00
2019-01-25T02:46:59.720Z,86.45
2019-01-25T02:52:22.563Z,85.65
2019-01-25T02:57:45.941Z,85.04
2019-01-25T03:00:55.798Z,84.81
2019-01-25T03:03:24.254Z,85.67
2019-01-25T03:05:52.738Z,86.69
2019-01-25T03:11:29.634Z,84.58
2019-01-25T03:17:06.814Z,87.43
2019-01-25T03:20:15.282Z,85.19
2019-01-25T03:26:18.906Z,85.62
2019-01-25T03:28:47.164Z,85.00
2019-01-25T03:31:15.384Z,84.58
2019-01-25T03:37:32.287Z,85.70
2019-01-25T03:43:48.796Z,85.52
2019-01-25T03:46:56.892Z,85.25
2019-01-25T03:49:25.010Z,84.66
2019-01-25T03:51:53.614Z,87.10
2019-01-25T03:58:10.798Z,87.26
2019-01-25T04:00:39.106Z,86.29
2019-01-25T04:03:07.271Z,85.44
2019-01-25T04:05:35.653Z,87.71
2019-01-25T04:08:44.167Z,85.28
2019-01-25T04:11:12.343Z,84.93
2019-01-25T04:13:40.209Z,84.63
2019-01-25T04:16:48.293Z,86.64
2019-01-25T04:19:16.495Z,83.46
2019-01-25T04:22:24.963Z,84.37
2019-01-25T04:24:53.163Z,85.09
2019-01-25T04:27:21.855Z,85.43
2019-01-25T04:32:45.095Z,88.18
2019-01-25T04:35:32.874Z,86.96
2019-01-25T04:38:01.087Z,85.63
2019-01-25T04:40:29.527Z,85.46
2019-01-25T04:42:57.603Z,86.43
2019-01-25T04:45:25.776Z,84.62
2019-01-25T04:47:54.213Z,83.43
2019-01-25T04:51:03.552Z,83.80
2019-01-25T04:54:11.705Z,82.38
2019-01-25T04:57:20.204Z,83.83
2019-01-25T05:00:28.668Z,86.10
2019-01-25T05:03:00.107Z,85.83
2019-01-25T05:06:08.346Z,87.98
2019-01-25T05:09:16.707Z,88.34
2019-01-25T05:12:24.549Z,86.26
2019-01-25T05:14:51.964Z,89.56
2019-01-25T05:18:00.482Z,88.47
2019-01-25T05:20:28.296Z,86.07
2019-01-25T05:26:33.767Z,85.35
2019-01-25T05:29:01.947Z,87.86
2019-01-25T05:32:10.478Z,85.98
2019-01-25T05:34:39.029Z,85.59
2019-01-25T05:37:47.695Z,86.58
2019-01-25T05:40:34.468Z,87.80
2019-01-25T05:43:42.670Z,87.65
2019-01-25T05:46:51.239Z,87.29
2019-01-25T05:49:59.729Z,87.82
2019-01-25T05:53:08.261Z,85.58
2019-01-25T05:56:16.329Z,85.91
2019-01-25T05:58:44.093Z,85.53
2019-01-25T06:01:12.181Z,85.75
2019-01-25T06:04:20.697Z,86.38
2019-01-25T06:07:28.795Z,86.40
2019-01-25T06:09:57.258Z,84.96
2019-01-25T06:13:05.398Z,85.89
2019-01-25T06:15:33.516Z,85.67
2019-01-25T06:18:42.374Z,88.36
2019-01-25T06:21:50.800Z,87.16
2019-01-25T06:24:18.490Z,85.20
2019-01-25T06:27:26.971Z,85.83
2019-01-25T06:30:35.069Z,86.32
2019-01-25T06:35:58.451Z,86.05
2019-01-25T06:41:21.458Z,85.54
2019-01-25T06:43:48.925Z,84.96
2019-01-25T06:46:17.057Z,85.31
2019-01-25T06:48:45.500Z,84.91
2019-01-25T06:51:13.657Z,84.79
2019-01-25T06:53:42.119Z,84.72
2019-01-25T06:56:10.027Z,84.68
2019-01-25T06:59:18.483Z,85.93
2019-01-25T07:02:06.109Z,85.53
2019-01-25T07:05:14.640Z,85.03
2019-01-25T07:10:52.018Z,84.82
2019-01-25T07:16:29.073Z,87.17
2019-01-25T07:18:56.862Z,89.83
2019-01-25T07:25:00.017Z,87.25
2019-01-25T07:30:22.953Z,88.76
2019-01-25T07:32:50.828Z,87.25
2019-01-25T07:35:19.155Z,86.00
2019-01-25T07:37:47.235Z,84.90
2019-01-25T07:43:11.328Z,85.57
2019-01-25T07:48:33.932Z,85.47
2019-01-25T07:51:02.407Z,86.80
2019-01-25T07:53:30.812Z,85.98
2019-01-25T07:56:39.454Z,85.86
2019-01-25T07:59:07.599Z,85.24
2019-01-25T08:02:16.181Z,85.62
2019-01-25T08:04:44.594Z,84.52
2019-01-25T08:07:53.066Z,83.91
2019-01-25T08:11:01.800Z,83.27
2019-01-25T08:16:27.626Z,83.73
2019-01-25T08:22:02.605Z,84.33
2019-01-25T08:33:12.472Z,82.38
2019-01-25T08:35:40.677Z,81.95
2019-01-25T08:38:08.824Z,82.01
2019-01-25T08:40:36.950Z,83.13
2019-01-25T08:43:05.418Z,82.22
2019-01-25T08:46:13.930Z,80.70
2019-01-25T08:48:42.537Z,81.50
2019-01-25T08:51:10.377Z,77.15
2019-01-25T08:53:38.560Z,77.49
2019-01-25T08:59:15.717Z,77.51
2019-01-25T09:02:24.195Z,76.17
2019-01-25T09:04:52.629Z,77.62
2019-01-25T09:07:20.400Z,77.87
2019-01-25T09:12:44.210Z,77.93
2019-01-25T09:15:54.061Z,78.64
2019-01-25T09:18:22.488Z,78.22
2019-01-25T09:20:50.546Z,78.10
2019-01-25T09:26:27.122Z,76.27
2019-01-25T09:28:55.245Z,76.69
2019-01-25T09:34:58.829Z,76.27
2019-01-25T09:41:02.913Z,74.45
2019-01-25T09:44:11.399Z,73.43
2019-01-25T09:53:10.716Z,74.08
2019-01-25T09:55:45.763Z,75.07
2019-01-25T09:58:15.394Z,72.81
2019-01-25T10:03:58.935Z,72.05
2019-01-25T10:09:22.196Z,72.01
2019-01-25T10:12:34.860Z,72.72
2019-01-25T10:15:00.024Z,72.97
2019-01-25T10:23:19.308Z,71.13
2019-01-25T10:28:56.562Z,70.07
2019-01-25T10:32:05.085Z,70.71
2019-01-25T10:35:13.189Z,70.50
2019-01-25T10:37:41.700Z,70.41
2019-01-25T10:40:51.627Z,69.17
2019-01-25T10:43:19.723Z,70.28
2019-01-25T10:48:56.231Z,71.51
2019-01-25T10:51:24.312Z,70.40
2019-01-25T10:54:32.450Z,70.28
2019-01-25T10:57:40.968Z,70.46
2019-01-25T11:00:51.396Z,71.52
2019-01-25T11:03:20.703Z,71.75
2019-01-25T11:05:49.050Z,72.60
2019-01-25T11:08:17.304Z,72.70
2019-01-25T11:10:45.500Z,72.82
2019-01-25T11:16:48.844Z,72.42
2019-01-25T11:19:56.938Z,72.21
2019-01-25T11:25:55.289Z,70.98
2019-01-25T11:28:23.830Z,70.98
2019-01-25T11:31:31.927Z,70.21
2019-01-25T11:34:00.164Z,71.46
2019-01-25T11:36:28.689Z,71.92
2019-01-25T11:38:57.110Z,70.49
2019-01-25T11:41:24.945Z,69.38
2019-01-25T11:43:53.128Z,70.14
2019-01-25T11:46:21.300Z,69.28
2019-01-25T11:48:49.899Z,69.68
2019-01-25T11:51:17.743Z,69.53
2019-01-25T11:53:46.175Z,68.61
2019-01-25T11:56:13.949Z,68.84
2019-01-25T11:58:42.093Z,68.22
2019-01-25T12:01:10.180Z,69.21
2019-01-25T12:03:38.684Z,68.09
2019-01-25T12:06:07.096Z,67.16
2019-01-25T12:08:35.636Z,67.58
2019-01-25T12:11:04.255Z,68.00
2019-01-25T12:13:32.745Z,68.61
2019-01-25T12:16:00.184Z,70.05
2019-01-25T12:18:28.770Z,69.99
2019-01-25T12:20:57.171Z,70.53
2019-01-25T12:23:24.932Z,70.50
2019-01-25T12:25:52.326Z,69.43
2019-01-25T12:28:20.514Z,69.70
2019-01-25T12:30:48.654Z,69.91
2019-01-25T12:33:17.292Z,70.84
2019-01-25T12:35:45.950Z,69.72
2019-01-25T12:38:13.697Z,68.71
2019-01-25T12:40:42.368Z,68.82
2019-01-25T12:43:51.239Z,68.60
2019-01-25T12:46:19.065Z,68.32
2019-01-25T12:48:46.894Z,67.64
2019-01-25T12:51:36.703Z,67.77
2019-01-25T12:54:45.226Z,69.32
2019-01-25T13:00:11.574Z,71.35
2019-01-25T13:03:20.083Z,72.28
2019-01-25T13:05:48.228Z,73.71
2019-01-25T13:08:56.348Z,71.84
2019-01-25T13:14:33.319Z,72.58
2019-01-25T13:17:01.895Z,72.65
2019-01-25T13:20:10.004Z,71.87
2019-01-25T13:22:38.464Z,72.42
2019-01-25T13:25:06.246Z,74.05
2019-01-25T13:27:33.978Z,71.17
2019-01-25T13:30:02.493Z,71.41
2019-01-25T13:32:31.303Z,71.87
2019-01-25T13:34:59.575Z,71.43
2019-01-25T13:37:31.472Z,71.44
2019-01-25T13:39:58.170Z,72.61
2019-01-25T13:43:06.255Z,71.98
2019-01-25T13:45:33.637Z,73.18
2019-01-25T13:48:02.197Z,72.11
2019-01-25T13:50:30.706Z,74.20
2019-01-25T13:52:59.285Z,74.09
2019-01-25T13:55:27.560Z,72.87
2019-01-25T13:57:54.935Z,72.78
2019-01-25T14:00:42.471Z,72.61
2019-01-25T14:03:10.259Z,71.65
2019-01-25T14:05:38.815Z,73.00
2019-01-25T14:08:07.244Z,74.81
2019-01-25T14:10:35.860Z,74.22
2019-01-25T14:13:46.944Z,73.86
2019-01-25T14:16:14.519Z,74.29
2019-01-25T14:18:44.842Z,75.55
2019-01-25T14:27:04.551Z,76.60
2019-01-25T14:29:32.514Z,75.57
2019-01-25T14:32:40.637Z,76.04
2019-01-25T14:35:08.483Z,76.50
2019-01-25T14:38:17.029Z,76.39
2019-01-25T14:40:45.566Z,76.55
2019-01-25T14:43:13.721Z,76.33
2019-01-25T14:45:41.939Z,75.54
2019-01-25T14:51:18.820Z,75.53
2019-01-25T14:53:50.942Z,76.05
2019-01-25T14:56:16.969Z,76.00
2019-01-25T14:59:24.781Z,76.16
2019-01-25T15:01:53.195Z,76.77
2019-01-25T15:05:01.639Z,77.06
2019-01-25T15:07:30.064Z,77.38
2019-01-25T15:09:58.751Z,76.63
2019-01-25T15:12:27.285Z,76.16
2019-01-25T15:14:55.125Z,77.24
2019-01-25T15:17:23.263Z,76.22
2019-01-25T15:19:50.660Z,75.83
2019-01-25T15:22:18.919Z,76.73
2019-01-25T15:27:55.599Z,76.22
2019-01-25T15:31:05.125Z,77.43
2019-01-25T15:34:13.670Z,78.88
2019-01-25T15:36:42.090Z,79.29
2019-01-25T15:39:50.900Z,80.02
2019-01-25T15:42:59.447Z,80.04
2019-01-25T15:46:07.540Z,80.25
2019-01-25T15:48:35.734Z,80.34
2019-01-25T15:51:44.198Z,79.27
2019-01-25T15:54:12.698Z,80.56
2019-01-25T15:56:40.482Z,80.18
2019-01-25T15:59:08.345Z,80.85
2019-01-25T16:01:36.096Z,80.69
2019-01-25T16:04:44.669Z,79.99
2019-01-25T16:07:13.201Z,79.92
2019-01-25T16:09:41.484Z,81.84
2019-01-25T16:12:09.242Z,81.16
2019-01-25T16:14:37.010Z,81.57
2019-01-25T16:17:04.791Z,81.96
2019-01-25T16:19:32.933Z,81.63
2019-01-25T16:22:41.026Z,81.88
2019-01-25T16:28:06.612Z,83.35
2019-01-25T16:31:16.385Z,82.98
2019-01-25T16:33:45.030Z,82.89
2019-01-25T16:39:09.405Z,83.30
2019-01-25T16:41:37.464Z,83.05
2019-01-25T16:44:46.059Z,84.10
2019-01-25T16:47:14.506Z,82.66
2019-01-25T16:49:42.755Z,82.40
2019-01-25T16:52:51.256Z,83.09
2019-01-25T16:55:59.778Z,82.34
2019-01-25T16:58:27.545Z,82.45
2019-01-25T17:00:55.519Z,83.11
2019-01-25T17:03:24.047Z,83.38
2019-01-25T17:05:52.234Z,83.10
2019-01-25T17:08:20.329Z,83.18
2019-01-25T17:10:48.614Z,83.25
2019-01-25T17:13:16.040Z,83.83
2019-01-25T17:15:43.854Z,83.49
2019-01-25T17:18:12.028Z,83.08
2019-01-25T17:20:40.439Z,83.47
2019-01-25T17:25:43.472Z,83.05
2019-01-25T17:28:52.259Z,83.52
2019-01-25T17:32:00.772Z,84.04
2019-01-25T17:37:38.029Z,82.72
2019-01-25T17:40:29.607Z,83.29
2019-01-25T17:42:57.914Z,82.37
2019-01-25T17:45:26.234Z,81.50
2019-01-25T17:48:34.752Z,81.08
2019-01-25T17:51:02.831Z,80.88
2019-01-25T17:53:29.976Z,80.91
2019-01-25T17:55:58.441Z,80.48
2019-01-25T17:58:26.776Z,81.20
2019-01-25T18:00:55.729Z,81.28
2019-01-25T18:03:43.015Z,81.48
2019-01-25T18:06:50.821Z,80.92
2019-01-25T18:09:19.098Z,81.05
2019-01-25T18:11:47.889Z,81.61
2019-01-25T18:17:10.145Z,82.00
2019-01-25T18:19:37.937Z,81.54
2019-01-25T18:22:46.485Z,81.56
2019-01-25T18:25:56.021Z,81.21
2019-01-25T18:29:05.929Z,80.25
2019-01-25T18:34:42.932Z,81.02
2019-01-25T18:37:51.538Z,81.35
2019-01-25T18:40:59.706Z,80.79
2019-01-25T18:46:23.216Z,81.00
2019-01-25T18:49:31.704Z,80.02
2019-01-25T18:52:00.125Z,79.90
2019-01-25T18:54:28.701Z,80.01
2019-01-25T18:56:56.891Z,80.40
2019-01-25T18:59:24.438Z,80.05
2019-01-25T19:01:52.872Z,80.18
2019-01-25T19:04:21.016Z,80.79
2019-01-25T19:07:29.143Z,81.40
2019-01-25T19:10:37.732Z,80.52
2019-01-25T19:16:15.284Z,81.10
2019-01-25T19:18:43.773Z,79.63
2019-01-25T19:27:00.701Z,80.89
2019-01-25T19:29:28.882Z,80.85
2019-01-25T19:31:56.306Z,80.98
2019-01-25T19:34:25.019Z,80.34
2019-01-25T19:36:53.185Z,80.98
2019-01-25T19:39:21.029Z,81.27
2019-01-25T19:41:49.571Z,80.95
2019-01-25T19:44:18.074Z,81.76
2019-01-25T19:46:46.241Z,81.81
2019-01-25T19:49:14.719Z,82.16
2019-01-25T19:51:43.019Z,82.52
2019-01-25T19:54:11.509Z,82.79
2019-01-25T19:56:39.739Z,83.22
2019-01-25T19:59:08.318Z,84.03
2019-01-25T20:01:36.441Z,84.96
2019-01-25T20:04:45.163Z,85.20
2019-01-25T20:07:12.966Z,85.01
2019-01-25T20:10:21.324Z,83.52
2019-01-25T20:13:01.699Z,83.80
2019-01-25T20:15:29.931Z,83.71
2019-01-25T20:20:53.025Z,84.14
2019-01-25T20:26:29.559Z,84.29
2019-01-25T20:34:26.991Z,85.23
2019-01-25T20:37:35.487Z,85.13
2019-01-25T20:42:58.255Z,85.78
2019-01-25T20:45:28.011Z,85.52
2019-01-25T20:47:55.475Z,84.61
2019-01-25T20:50:25.568Z,85.02
2019-01-25T20:52:53.744Z,84.13
2019-01-25T20:55:21.901Z,84.77
2019-01-25T20:57:50.349Z,84.80
2019-01-25T21:00:23.166Z,85.01
2019-01-25T21:02:51.392Z,85.98
2019-01-25T21:05:19.746Z,84.41
2019-01-25T21:07:48.258Z,84.68
2019-01-25T21:10:18.076Z,85.12
2019-01-25T21:12:46.581Z,84.53
2019-01-25T21:15:55.419Z,84.86
2019-01-25T21:18:24.027Z,84.34
2019-01-25T21:24:27.774Z,85.00
2019-01-25T21:26:55.639Z,85.41
2019-01-25T21:30:03.807Z,84.68
2019-01-25T21:32:32.363Z,84.79
2019-01-25T21:35:00.267Z,84.33
2019-01-25T21:37:28.830Z,83.96
2019-01-25T21:39:56.726Z,84.26
2019-01-25T21:42:24.913Z,84.92
2019-01-25T21:44:53.091Z,84.74
2019-01-25T21:49:55.478Z,84.58
2019-01-25T21:52:23.716Z,83.78
2019-01-25T21:54:52.374Z,83.39
2019-01-25T21:57:20.647Z,83.20
2019-01-25T21:59:49.053Z,82.64
2019-01-25T22:02:17.194Z,82.88
2019-01-25T22:04:45.031Z,82.59
2019-01-25T22:07:13.655Z,82.17
2019-01-25T22:09:42.158Z,81.63
2019-01-25T22:12:10.625Z,81.62
2019-01-25T22:14:39.235Z,81.89
2019-01-25T22:17:07.411Z,81.47
2019-01-25T22:19:35.924Z,82.33
2019-01-25T22:22:44.361Z,81.81
2019-01-25T22:25:12.767Z,80.68
2019-01-25T22:27:40.894Z,80.46
2019-01-25T22:30:11.601Z,81.35
2019-01-25T22:32:39.665Z,81.07
2019-01-25T22:35:08.034Z,80.31
2019-01-25T22:37:36.529Z,80.77
2019-01-25T22:40:44.939Z,79.94
2019-01-25T22:43:12.821Z,80.47
2019-01-25T22:45:42.082Z,80.23
2019-01-25T22:48:10.706Z,80.57
2019-01-25T22:50:38.542Z,80.41
2019-01-25T22:53:46.769Z,79.75
2019-01-25T22:59:09.123Z,80.05
2019-01-25T23:01:37.291Z,80.06
2019-01-25T23:04:43.805Z,79.96
2019-01-25T23:07:53.363Z,78.95
2019-01-25T23:11:02.103Z,78.91
2019-01-25T23:13:29.931Z,78.95
2019-01-25T23:15:58.018Z,79.19
2019-01-25T23:18:26.382Z,79.90
2019-01-25T23:20:54.515Z,79.11
2019-01-25T23:23:22.916Z,79.54
2019-01-25T23:25:50.746Z,79.08
2019-01-25T23:28:18.652Z,78.43
2019-01-25T23:30:47.217Z,78.85
2019-01-25T23:33:15.615Z,78.59
2019-01-25T23:35:44.067Z,78.15
2019-01-25T23:41:07.473Z,78.05
2019-01-25T23:43:35.682Z,77.46
2019-01-25T23:49:12.206Z,78.26
2019-01-25T23:54:48.672Z,79.08
2019-01-25T23:57:16.974Z,79.20
2019-01-25T23:59:44.810Z,79.47
